Time;durP1;ratioP1;P1;durP2;ratioP2;P2;SDS_P1;SDS_P2;PMS_P1;PMS_P2;Temp;Humidity;BMP_temperature;BMP_pressure;BME280_temperature;BME280_humidity;BME280_pressure;Samples;Min_cycle;Max_cycle;Signal;HPM_P1;HPM_P2
2022/10/24 00:01:15;;;;;;;7.68;2.28;;;;;;;16.15;63.67;95270.91;4810968;29;20679;-86
2022/10/24 00:03:40;;;;;;;6.85;1.80;;;;;;;16.18;63.65;95269.72;4826346;29;20206;-86
2022/10/24 00:06:07;;;;;;;7.78;2.60;;;;;;;16.09;64.52;95272.47;4808458;29;20205;-86
2022/10/24 00:08:34;;;;;;;10.40;2.00;;;;;;;15.93;65.61;95272.72;4811667;29;20194;-86
2022/10/24 00:10:59;;;;;;;8.23;2.17;;;;;;;15.92;66.02;95276.34;4810631;29;20226;-85
2022/10/24 00:13:24;;;;;;;6.50;2.03;;;;;;;15.81;66.74;95266.34;4825498;29;20210;-86
2022/10/24 00:15:50;;;;;;;7.68;2.00;;;;;;;15.79;66.75;95270.97;4810667;29;20239;-86
2022/10/24 00:18:16;;;;;;;6.97;1.60;;;;;;;15.70;67.52;95264.22;4812139;29;20661;-86
2022/10/24 00:20:41;;;;;;;8.60;2.00;;;;;;;15.56;68.13;95263.25;4811858;29;20213;-86
2022/10/24 00:23:07;;;;;;;8.68;1.80;;;;;;;15.50;68.38;95266.59;4827322;29;20230;-86
2022/10/24 00:25:32;;;;;;;4.32;1.85;;;;;;;15.41;68.64;95273.75;4811679;29;20615;-86
2022/10/24 00:27:58;;;;;;;6.40;1.75;;;;;;;15.46;68.05;95266.19;4825755;29;20194;-86
2022/10/24 00:30:23;;;;;;;7.40;2.28;;;;;;;15.40;68.34;95272.13;4817662;29;20202;-86
2022/10/24 00:32:50;;;;;;;8.90;2.25;;;;;;;15.42;68.97;95270.16;4810996;29;20194;-86
2022/10/24 00:35:15;;;;;;;9.27;2.38;;;;;;;15.31;70.46;95283.72;4824329;29;20337;-86
2022/10/24 00:37:40;;;;;;;4.40;1.88;;;;;;;15.21;71.08;95291.84;4822336;29;20190;-86
2022/10/24 00:40:06;;;;;;;7.00;1.80;;;;;;;15.19;71.31;95295.59;4825939;29;20226;-86
2022/10/24 00:42:32;;;;;;;7.38;2.35;;;;;;;15.14;71.96;95292.75;4826393;29;20551;-85
2022/10/24 00:44:57;;;;;;;8.23;1.65;;;;;;;15.07;72.31;95281.38;4810601;29;20259;-85
2022/10/24 00:47:25;;;;;;;9.13;2.20;;;;;;;15.00;72.46;95284.72;4823934;29;20187;-86
2022/10/24 00:50:06;;;;;;;6.25;1.75;;;;;;;14.99;72.63;95279.66;4826010;29;20689;-86
2022/10/24 00:52:34;;;;;;;8.48;2.03;;;;;;;15.02;72.77;95284.56;4822705;29;20194;-85
2022/10/24 00:55:00;;;;;;;7.78;2.25;;;;;;;14.98;72.73;95289.31;4825543;29;20247;-86
2022/10/24 00:57:43;;;;;;;8.23;1.85;;;;;;;14.98;72.33;95289.31;4817606;29;20202;-86
2022/10/24 01:00:12;;;;;;;7.85;2.08;;;;;;;14.94;71.85;95288.06;4824149;29;20686;-86
2022/10/24 01:02:38;;;;;;;9.65;2.28;;;;;;;14.90;71.84;95285.97;4808938;29;20550;-86
2022/10/24 01:05:04;;;;;;;6.10;2.33;;;;;;;14.92;71.88;95287.41;4807749;29;20213;-86
2022/10/24 01:07:59;;;;;;;9.38;2.05;;;;;;;14.95;71.84;95284.47;4825309;29;20205;-86
2022/10/24 01:10:31;;;;;;;5.60;2.53;;;;;;;14.92;71.61;95279.56;4824512;29;20524;-86
2022/10/24 01:13:18;;;;;;;8.57;2.05;;;;;;;14.94;71.60;95275.00;4819906;29;20212;-85
2022/10/24 01:15:58;;;;;;;7.40;2.30;;;;;;;14.97;71.59;95272.00;4829990;29;20205;-86
2022/10/24 01:18:34;;;;;;;8.93;2.42;;;;;;;14.98;71.52;95275.44;4825720;29;20202;-86
2022/10/24 01:21:06;;;;;;;6.43;2.15;;;;;;;15.00;71.03;95271.63;4809988;29;20385;-86
2022/10/24 01:23:41;;;;;;;12.35;2.80;;;;;;;14.99;71.42;95277.88;4825676;29;20205;-85
2022/10/24 01:26:25;;;;;;;7.43;2.20;;;;;;;15.02;71.87;95274.09;4825141;29;20747;-86
2022/10/24 01:29:15;;;;;;;7.47;2.05;;;;;;;14.96;72.65;95269.59;4833991;29;20248;-86
2022/10/24 01:31:54;;;;;;;9.07;2.10;;;;;;;14.86;73.17;95274.28;4816876;29;20225;-86
2022/10/24 01:34:25;;;;;;;7.85;2.00;;;;;;;14.88;73.54;95267.88;4810936;29;20251;-86
2022/10/24 01:37:01;;;;;;;9.32;2.08;;;;;;;14.82;73.94;95265.97;4824201;29;20277;-86
2022/10/24 01:39:31;;;;;;;7.25;2.38;;;;;;;14.75;73.75;95270.28;4821843;29;20222;-86
2022/10/24 01:41:57;;;;;;;5.53;1.90;;;;;;;14.73;73.71;95267.84;4824528;29;20230;-86
2022/10/24 01:44:27;;;;;;;3.37;1.53;;;;;;;14.70;74.18;95272.66;4825017;29;20194;-86
2022/10/24 01:47:03;;;;;;;5.03;1.73;;;;;;;14.77;74.11;95281.41;4791579;29;20219;-86
2022/10/24 01:49:33;;;;;;;6.53;1.58;;;;;;;14.70;74.00;95277.88;4809295;29;20275;-86
2022/10/24 01:52:01;;;;;;;7.70;2.00;;;;;;;14.67;74.77;95276.44;4825302;29;20202;-85
2022/10/24 01:54:28;;;;;;;7.17;1.80;;;;;;;14.62;74.90;95283.19;4807397;29;20211;-86
2022/10/24 01:56:53;;;;;;;9.00;2.10;;;;;;;14.65;75.19;95277.59;4807892;29;20203;-86
2022/10/24 01:59:26;;;;;;;5.95;1.80;;;;;;;14.62;75.35;95284.00;4825216;29;20312;-86
2022/10/24 02:01:54;;;;;;;8.00;2.22;;;;;;;14.55;75.49;95280.47;4826472;29;20202;-86
2022/10/24 02:04:20;;;;;;;8.10;1.77;;;;;;;14.65;74.89;95282.81;4834075;29;20193;-85
2022/10/24 02:06:46;;;;;;;4.90;1.70;;;;;;;14.65;74.96;95283.63;4846425;29;20201;-85
2022/10/24 02:09:15;;;;;;;4.87;1.97;;;;;;;14.69;74.72;95284.91;4847293;29;20202;-85
2022/10/24 02:11:41;;;;;;;7.53;2.47;;;;;;;14.75;74.59;95280.75;4839026;29;20197;-85
2022/10/24 02:14:17;;;;;;;5.73;2.10;;;;;;;14.84;74.03;95276.25;4840623;29;20210;-85
2022/10/24 02:16:43;;;;;;;5.30;1.83;;;;;;;14.84;74.14;95276.25;4828787;29;20205;-86
2022/10/24 02:19:08;;;;;;;6.85;1.75;;;;;;;14.79;74.75;95274.19;4822902;29;20488;-86
2022/10/24 02:22:07;;;;;;;4.00;2.53;;;;;;;14.86;74.37;95269.03;4822252;29;20198;-86
2022/10/24 02:24:41;;;;;;;4.17;2.10;;;;;;;14.79;74.47;95262.91;4821894;29;20197;-85
2022/10/24 02:27:15;;;;;;;5.90;2.10;;;;;;;14.81;74.51;95268.75;4822357;29;20197;-85
2022/10/24 02:29:43;;;;;;;5.30;1.63;;;;;;;14.80;74.68;95264.53;4822165;29;20206;-86
2022/10/24 02:32:14;;;;;;;11.90;2.00;;;;;;;14.76;74.56;95261.47;4807254;29;20185;-85
2022/10/24 02:34:40;;;;;;;7.75;1.83;;;;;;;14.77;74.40;95259.69;4821908;29;20565;-85
2022/10/24 02:37:07;;;;;;;6.00;2.03;;;;;;;14.80;74.33;95260.13;4818546;29;20198;-85
2022/10/24 02:39:33;;;;;;;6.07;1.70;;;;;;;14.88;74.12;95269.66;4813705;29;20300;-86
2022/10/24 02:41:59;;;;;;;7.37;2.00;;;;;;;14.81;74.26;95260.94;4822729;29;20201;-86
2022/10/24 02:44:25;;;;;;;9.35;2.10;;;;;;;14.75;74.63;95265.06;4822486;29;20573;-86
2022/10/24 02:46:53;;;;;;;6.47;2.00;;;;;;;14.86;74.35;95258.59;4822035;29;20693;-86
2022/10/24 02:49:19;;;;;;;8.25;1.88;;;;;;;14.80;74.45;95256.69;4812717;29;20217;-85
2022/10/24 02:51:45;;;;;;;4.20;1.65;;;;;;;14.83;74.45;95244.06;4822420;29;20194;-86
2022/10/24 02:54:10;;;;;;;10.55;2.47;;;;;;;14.85;74.51;95249.13;4807878;29;20190;-87
2022/10/24 02:56:39;;;;;;;7.05;2.13;;;;;;;14.80;74.66;95241.81;4807659;29;20198;-86
2022/10/24 02:59:04;;;;;;;9.00;2.15;;;;;;;14.81;74.58;95225.13;4811179;29;20225;-85
2022/10/24 03:01:29;;;;;;;8.75;2.28;;;;;;;14.73;75.02;95225.22;4811067;29;20201;-85
2022/10/24 03:03:54;;;;;;;7.20;1.97;;;;;;;14.75;75.47;95233.69;4841039;29;20213;-85
2022/10/24 03:06:20;;;;;;;4.30;1.70;;;;;;;14.68;75.64;95241.47;4824596;29;20202;-86
2022/10/24 03:08:45;;;;;;;6.68;1.98;;;;;;;14.62;76.29;95246.59;4826258;29;20232;-86
2022/10/24 03:11:10;;;;;;;9.57;2.00;;;;;;;14.69;75.91;95247.50;4826282;29;20280;-86
2022/10/24 03:13:36;;;;;;;11.75;2.28;;;;;;;14.72;75.77;95258.41;4809821;29;20258;-86
2022/10/24 03:16:03;;;;;;;10.02;2.42;;;;;;;14.68;76.44;95266.78;4809755;29;20268;-86
2022/10/24 03:18:28;;;;;;;11.88;2.80;;;;;;;14.65;76.16;95262.72;4840312;29;20194;-87
2022/10/24 03:20:53;;;;;;;7.30;2.15;;;;;;;14.65;76.20;95262.72;4840535;29;20287;-86
2022/10/24 03:23:20;;;;;;;9.97;2.20;;;;;;;14.65;76.29;95256.69;4828027;29;20647;-86
2022/10/24 03:25:46;;;;;;;7.47;2.70;;;;;;;14.64;76.66;95268.13;4809254;29;20755;-86
2022/10/24 03:28:11;;;;;;;9.40;2.50;;;;;;;14.61;77.25;95266.69;4811384;29;20202;-86
2022/10/24 03:30:36;;;;;;;8.82;2.03;;;;;;;14.58;77.50;95261.03;4827912;29;20458;-86
2022/10/24 03:33:01;;;;;;;10.55;2.63;;;;;;;14.59;77.55;95257.41;4827710;29;20202;-86
2022/10/24 03:35:27;;;;;;;7.85;2.40;;;;;;;14.58;77.97;95242.72;4810923;29;20578;-87
2022/10/24 03:37:52;;;;;;;8.05;2.53;;;;;;;14.56;78.30;95232.44;4826771;29;20198;-86
2022/10/24 03:40:17;;;;;;;5.57;2.20;;;;;;;14.59;78.25;95239.13;4839809;29;20236;-87
2022/10/24 03:42:43;;;;;;;4.87;1.97;;;;;;;14.52;78.69;95241.63;4834373;29;20566;-86
2022/10/24 03:45:08;;;;;;;9.50;2.90;;;;;;;14.47;79.48;95237.94;4814586;29;20201;-86
2022/10/24 03:47:33;;;;;;;10.00;2.60;;;;;;;14.48;79.77;95234.31;4828498;29;20202;-86
2022/10/24 03:49:59;;;;;;;7.93;2.33;;;;;;;14.49;79.66;95242.00;4828807;29;20213;-85
2022/10/24 03:52:24;;;;;;;11.50;2.50;;;;;;;14.53;79.63;95245.88;4828535;29;20194;-86
2022/10/24 03:54:50;;;;;;;10.27;2.70;;;;;;;14.52;80.16;95246.84;4821177;29;20201;-86
2022/10/24 03:57:15;;;;;;;6.03;2.38;;;;;;;14.50;80.37;95243.63;4834349;29;20213;-86
2022/10/24 03:59:40;;;;;;;13.97;3.37;;;;;;;14.47;81.10;95256.22;4828240;29;20214;-87
2022/10/24 04:02:06;;;;;;;12.33;2.37;;;;;;;14.42;81.53;95261.97;4810768;29;20203;-86
2022/10/24 04:04:31;;;;;;;9.47;2.53;;;;;;;14.35;82.14;95267.06;4823885;29;20220;-86
2022/10/24 04:06:59;;;;;;;9.17;2.27;;;;;;;14.37;82.57;95267.69;4811373;29;20292;-86
2022/10/24 04:09:24;;;;;;;8.67;2.57;;;;;;;14.42;82.79;95275.03;4825506;29;20218;-86
2022/10/24 04:11:50;;;;;;;7.50;2.40;;;;;;;14.25;84.80;95271.75;4825875;29;20246;-86
2022/10/24 04:14:15;;;;;;;7.10;2.93;;;;;;;14.35;84.87;95263.66;4810146;29;20198;-86
2022/10/24 04:16:40;;;;;;;14.13;3.10;;;;;;;14.34;85.59;95275.91;4809332;29;20198;-86
2022/10/24 04:19:06;;;;;;;9.20;2.63;;;;;;;14.34;85.35;95272.47;4824773;29;20640;-86
2022/10/24 04:21:31;;;;;;;9.57;3.03;;;;;;;14.35;85.22;95266.25;4825709;29;20197;-85
2022/10/24 04:23:56;;;;;;;11.83;2.90;;;;;;;14.28;86.32;95274.00;4825897;29;20204;-86
2022/10/24 04:26:22;;;;;;;8.20;2.70;;;;;;;14.26;86.54;95267.31;4810164;29;20209;-86
2022/10/24 04:28:47;;;;;;;11.67;3.37;;;;;;;14.31;86.48;95254.53;4825338;29;20204;-86
2022/10/24 04:31:13;;;;;;;11.63;3.07;;;;;;;14.29;87.22;95241.66;4824941;29;20197;-86
2022/10/24 04:33:39;;;;;;;8.77;2.60;;;;;;;14.31;87.24;95241.47;4809921;29;20265;-85
2022/10/24 04:36:04;;;;;;;10.53;3.00;;;;;;;14.29;87.47;95252.09;4823842;29;20305;-81
2022/10/24 04:38:30;;;;;;;7.43;3.00;;;;;;;14.23;88.26;95258.06;4823444;29;20193;-81
2022/10/24 04:40:56;;;;;;;4.50;2.80;;;;;;;14.23;88.36;95254.63;4824218;29;20210;-83
2022/10/24 04:43:23;;;;;;;9.77;2.90;;;;;;;14.16;89.41;95237.06;4805843;29;20203;-85
2022/10/24 05:15:31;;;;;;;7.93;2.63;;;;;;;14.32;94.69;95271.84;5840408;23;20236;-86
2022/10/24 05:21:42;;;;;;;;;;;;;;;;;;;;;
2022/10/24 05:24:34;;;;;;;;;;;;;;;;;;;;;
2022/10/24 05:27:00;;;;;;;14.97;3.50;;;;;;;14.23;97.23;95258.06;4839877;29;20200;-80
2022/10/24 05:29:25;;;;;;;15.83;4.47;;;;;;;14.27;97.02;95269.75;4841399;29;20284;-80
2022/10/24 05:31:51;;;;;;;10.93;3.40;;;;;;;14.36;96.77;95247.78;4840119;29;20201;-79
2022/10/24 05:34:50;;;;;;;14.20;3.70;;;;;;;14.30;98.27;95273.81;4841465;29;20245;-86
2022/10/24 05:43:51;;;;;;;10.43;3.23;;;;;;;14.24;99.58;95327.56;4832315;29;20229;-88
2022/10/24 05:49:50;;;;;;;11.00;2.87;;;;;;;14.29;97.91;95335.69;4835579;29;20597;-86
2022/10/24 05:52:16;;;;;;;10.17;2.80;;;;;;;14.28;97.79;95307.13;4802513;29;20688;-87
2022/10/24 05:54:41;;;;;;;8.03;2.60;;;;;;;14.05;96.59;95307.97;4785392;29;20202;-85
2022/10/24 05:57:06;;;;;;;6.97;2.70;;;;;;;14.08;94.21;95298.97;4800472;29;20683;-84
2022/10/24 05:59:32;;;;;;;6.23;2.30;;;;;;;14.11;96.22;95303.84;4802133;29;20234;-86
2022/10/24 06:01:57;;;;;;;8.67;2.70;;;;;;;14.16;97.85;95278.81;4796607;29;20202;-86
2022/10/24 06:04:22;;;;;;;8.73;2.43;;;;;;;14.20;98.79;95283.69;4810366;29;20206;-86
2022/10/24 06:06:51;;;;;;;11.00;2.93;;;;;;;14.20;99.25;95281.06;4825741;29;20198;-86
2022/10/24 06:09:20;;;;;;;9.00;2.60;;;;;;;13.99;100.00;95294.81;4818757;29;20232;-87
2022/10/24 06:11:45;;;;;;;9.30;3.20;;;;;;;14.00;100.00;95301.63;4792362;29;20317;-88
2022/10/24 06:14:15;;;;;;;10.27;3.33;;;;;;;14.04;100.00;95297.69;4801594;29;20251;-87
2022/10/24 06:16:41;;;;;;;6.93;3.27;;;;;;;14.18;100.00;95318.63;4805980;29;20727;-85
2022/10/24 06:19:06;;;;;;;11.60;3.33;;;;;;;13.99;100.00;95316.50;4789746;29;20255;-87
2022/10/24 06:21:32;;;;;;;6.13;3.10;;;;;;;13.96;100.00;95326.44;4804524;29;20201;-87
2022/10/24 06:23:57;;;;;;;8.87;3.00;;;;;;;14.04;100.00;95326.41;4802382;29;20186;-87
2022/10/24 06:26:23;;;;;;;9.80;3.87;;;;;;;14.13;100.00;95331.41;4808977;29;20208;-86
2022/10/24 06:28:48;;;;;;;8.70;2.83;;;;;;;14.13;99.80;95341.03;4839368;29;20204;-87
2022/10/24 06:31:14;;;;;;;12.80;3.27;;;;;;;14.17;100.00;95353.56;4822234;29;20281;-89
2022/10/24 06:33:39;;;;;;;10.80;3.50;;;;;;;14.22;99.90;95350.41;4828140;29;20193;-85
2022/10/24 06:36:08;;;;;;;10.07;3.03;;;;;;;14.28;97.78;95348.91;4842994;29;20217;-87
2022/10/24 06:38:34;;;;;;;8.30;2.63;;;;;;;14.22;98.56;95358.25;4826560;29;20189;-87
2022/10/24 06:41:04;;;;;;;8.00;3.43;;;;;;;14.24;98.32;95364.13;4836864;29;20588;-87
2022/10/24 06:43:40;;;;;;;7.80;3.03;;;;;;;14.38;98.22;95339.03;4830464;29;20269;-85
2022/10/24 06:46:11;;;;;;;3.77;2.13;;;;;;;14.31;96.38;95327.66;4835772;29;20185;-84
2022/10/24 06:48:44;;;;;;;8.07;2.87;;;;;;;14.37;96.57;95334.81;4838951;29;20507;-85
2022/10/24 06:51:13;;;;;;;5.30;2.73;;;;;;;14.31;97.52;95359.00;4842804;29;20185;-86
2022/10/24 06:53:44;;;;;;;6.77;2.47;;;;;;;14.26;99.18;95358.75;4826082;29;20494;-86
2022/10/24 06:56:09;;;;;;;6.50;2.90;;;;;;;14.41;99.05;95365.66;4836303;29;20193;-86
2022/10/24 06:58:36;;;;;;;9.27;2.90;;;;;;;14.27;100.00;95379.44;4828640;29;20197;-86
2022/10/24 07:01:16;;;;;;;7.60;2.80;;;;;;;14.21;100.00;95369.69;4827802;29;20215;-85
2022/10/24 07:03:41;;;;;;;7.67;2.67;;;;;;;14.08;100.00;95385.13;4839609;29;20196;-85
2022/10/24 07:06:25;;;;;;;9.67;2.77;;;;;;;14.18;99.95;95380.50;4824857;29;20193;-85
2022/10/24 07:08:52;;;;;;;6.90;2.73;;;;;;;14.32;99.46;95358.84;4826528;29;20225;-83
2022/10/24 07:11:18;;;;;;;7.87;2.27;;;;;;;14.26;98.35;95336.03;4826517;29;20192;-84
2022/10/24 07:13:51;;;;;;;5.57;1.97;;;;;;;14.20;94.71;95348.97;4822784;29;20714;-86
2022/10/24 07:16:17;;;;;;;6.47;2.30;;;;;;;14.23;94.27;95332.97;4823459;29;20192;-85
2022/10/24 07:18:42;;;;;;;4.83;1.90;;;;;;;14.34;95.38;95327.34;4827010;29;20181;-85
2022/10/24 07:21:13;;;;;;;5.97;3.07;;;;;;;14.45;95.88;95309.47;4834455;29;20217;-85
2022/10/24 07:23:38;;;;;;;4.77;2.57;;;;;;;14.50;96.67;95323.81;4828218;29;20189;-84
2022/10/24 07:26:06;;;;;;;7.00;2.50;;;;;;;14.47;97.23;95324.94;4836022;29;20188;-85
2022/10/24 07:28:32;;;;;;;5.50;2.50;;;;;;;14.26;99.51;95330.00;4825253;29;20198;-85
2022/10/24 07:31:00;;;;;;;7.37;2.60;;;;;;;14.38;98.85;95346.88;4828490;29;20698;-85
2022/10/24 07:33:32;;;;;;;6.27;2.90;;;;;;;14.52;98.52;95342.72;4828917;29;20205;-86
2022/10/24 07:35:58;;;;;;;5.07;2.23;;;;;;;14.53;98.25;95334.69;4828436;29;20193;-86
2022/10/24 07:38:26;;;;;;;6.57;2.80;;;;;;;14.51;98.21;95341.91;4839911;29;20689;-86
2022/10/24 07:41:04;;;;;;;8.67;2.80;;;;;;;14.59;98.08;95346.25;4837260;29;20227;-86
2022/10/24 07:43:34;;;;;;;8.97;4.63;;;;;;;14.51;99.24;95346.31;4839403;29;20197;-86
2022/10/24 07:46:15;;;;;;;8.90;3.73;;;;;;;14.37;99.47;95353.91;4825699;29;20193;-86
2022/10/24 07:48:49;;;;;;;7.57;2.77;;;;;;;14.47;98.84;95345.03;4827151;29;20276;-87
2022/10/24 07:51:14;;;;;;;9.80;4.50;;;;;;;14.60;96.95;95343.47;4836644;29;20189;-87
2022/10/24 07:53:41;;;;;;;11.03;4.20;;;;;;;14.65;96.19;95342.91;4847256;29;20197;-86
2022/10/24 07:56:14;;;;;;;15.13;5.43;;;;;;;14.88;95.12;95348.09;4844484;29;20193;-86
2022/10/24 07:58:49;;;;;;;6.35;4.25;;;;;;;15.09;95.01;95352.63;4857591;29;20733;-86
2022/10/24 08:01:20;;;;;;;9.00;3.75;;;;;;;15.19;95.09;95361.81;4845958;29;20232;-86
2022/10/24 08:03:46;;;;;;;8.52;4.28;;;;;;;15.27;95.39;95360.91;4842308;29;20220;-85
2022/10/24 08:06:17;;;;;;;9.07;3.85;;;;;;;15.20;95.19;95362.66;4826071;29;20227;-83
2022/10/24 08:08:53;;;;;;;7.20;4.03;;;;;;;15.07;95.81;95362.44;4826945;29;20193;-86
2022/10/24 08:11:53;;;;;;;8.50;4.53;;;;;;;15.18;95.60;95357.56;4816565;29;20206;-87
2022/10/24 08:14:30;;;;;;;8.07;3.63;;;;;;;15.12;96.43;95353.09;4847505;29;20197;-86
2022/10/24 08:17:05;;;;;;;12.70;5.63;;;;;;;15.07;96.78;95354.59;4842847;29;20200;-86
2022/10/24 08:20:14;;;;;;;6.97;4.20;;;;;;;15.11;96.17;95351.47;4842535;29;20241;-86
2022/10/24 08:23:41;;;;;;;12.98;3.40;;;;;;;14.97;96.98;95347.84;4862634;29;20185;-89
2022/10/24 08:26:45;;;;;;;;;;;;;;;;;;;;;
2022/10/24 08:32:25;;;;;;;9.77;3.50;;;;;;;14.86;98.34;95378.84;4869333;29;20216;-87
2022/10/24 08:34:53;;;;;;;9.07;3.25;;;;;;;14.71;99.30;95370.97;4853177;29;20251;-86
2022/10/24 08:37:50;;;;;;;8.00;3.73;;;;;;;14.82;99.43;95357.47;4840988;29;20193;-86
2022/10/24 08:40:18;;;;;;;8.13;2.93;;;;;;;14.89;98.23;95374.06;4849607;29;20232;-86
2022/10/24 08:43:05;;;;;;;8.70;3.10;;;;;;;14.89;98.76;95368.84;4828230;29;20236;-86
2022/10/24 08:45:52;;;;;;;11.40;3.40;;;;;;;14.88;98.88;95359.38;4846668;29;20235;-87
2022/10/24 08:48:55;;;;;;;7.03;3.07;;;;;;;14.89;98.31;95347.91;4827222;29;20253;-86
2022/10/24 08:51:39;;;;;;;11.73;3.90;;;;;;;14.97;98.07;95358.28;4843883;29;20231;-86
2022/10/24 08:54:35;;;;;;;9.73;3.23;;;;;;;14.94;98.31;95357.84;4826105;29;20207;-86
2022/10/24 08:57:01;;;;;;;6.73;3.33;;;;;;;14.83;98.58;95359.09;4810750;29;20245;-86
2022/10/24 08:59:28;;;;;;;7.70;3.23;;;;;;;14.79;99.23;95368.28;4816308;29;20219;-85
2022/10/24 09:02:04;;;;;;;6.33;3.40;;;;;;;14.77;99.87;95383.34;4841157;29;20201;-86
2022/10/24 09:04:36;;;;;;;12.77;4.27;;;;;;;14.67;100.00;95380.16;4825536;29;20233;-86
2022/10/24 09:07:14;;;;;;;6.87;3.30;;;;;;;14.72;99.65;95378.63;4825491;29;20258;-86
2022/10/24 09:09:50;;;;;;;9.33;3.33;;;;;;;14.66;99.91;95383.75;4828489;29;20244;-86
2022/10/24 09:12:19;;;;;;;9.30;3.90;;;;;;;14.76;100.00;95392.16;4823733;29;20189;-86
2022/10/24 09:14:46;;;;;;;11.88;4.15;;;;;;;14.75;100.00;95390.53;4822713;29;20293;-87
2022/10/24 09:17:46;;;;;;;9.63;4.77;;;;;;;14.69;100.00;95396.47;4806078;29;20198;-87
2022/10/24 09:20:33;;;;;;;7.80;4.83;;;;;;;14.62;100.00;95387.72;4854314;29;20317;-86
2022/10/24 09:23:05;;;;;;;10.60;4.37;;;;;;;14.64;100.00;95390.94;4842294;29;20780;-86
2022/10/24 09:25:34;;;;;;;7.70;3.47;;;;;;;14.79;100.00;95385.78;4823966;29;20297;-88
2022/10/24 09:28:11;;;;;;;8.73;4.20;;;;;;;14.84;100.00;95380.81;4835960;29;20186;-86
2022/10/24 09:30:37;;;;;;;13.23;3.47;;;;;;;14.80;100.00;95390.81;4836979;29;20209;-87
2022/10/24 09:33:13;;;;;;;8.20;3.40;;;;;;;14.74;100.00;95397.56;4828226;29;20208;-87
2022/10/24 09:35:42;;;;;;;10.67;3.13;;;;;;;14.86;100.00;95400.56;4839870;29;20689;-87
2022/10/24 09:38:32;;;;;;;6.30;3.73;;;;;;;14.87;99.40;95402.19;4826095;29;20190;-86
2022/10/24 09:41:01;;;;;;;9.70;2.90;;;;;;;14.91;99.62;95406.06;4841486;29;20232;-87
2022/10/24 09:43:58;;;;;;;8.40;2.80;;;;;;;14.76;100.00;95407.84;4823194;29;20284;-85
2022/10/24 09:46:29;;;;;;;6.97;3.00;;;;;;;14.77;100.00;95406.88;4825594;29;20277;-86
2022/10/24 09:49:13;;;;;;;7.70;3.17;;;;;;;14.67;99.54;95407.09;4827678;29;20714;-86
2022/10/24 09:51:57;;;;;;;7.23;3.20;;;;;;;14.69;100.00;95409.53;4840251;29;20189;-86
2022/10/24 09:54:27;;;;;;;9.63;3.20;;;;;;;14.66;100.00;95409.88;4824074;29;20200;-86
2022/10/24 09:57:10;;;;;;;5.90;3.40;;;;;;;14.78;99.39;95407.69;4840670;29;20189;-86
2022/10/24 09:59:44;;;;;;;9.23;3.47;;;;;;;14.79;99.62;95406.69;4837206;29;20272;-86
2022/10/24 10:02:11;;;;;;;8.93;3.97;;;;;;;14.81;98.90;95408.13;4831324;29;20193;-86
2022/10/24 10:04:37;;;;;;;10.40;3.97;;;;;;;14.73;99.61;95406.38;4836905;29;20288;-87
2022/10/24 10:07:14;;;;;;;8.63;3.10;;;;;;;14.81;99.12;95400.28;4820373;29;20276;-86
2022/10/24 10:09:48;;;;;;;9.07;2.80;;;;;;;14.60;100.00;95400.16;4832299;29;20212;-86
2022/10/24 10:12:41;;;;;;;8.13;2.95;;;;;;;14.80;98.48;95400.47;4819172;29;20221;-87
2022/10/24 10:15:29;;;;;;;8.20;2.80;;;;;;;14.93;98.75;95396.25;4820098;29;20265;-86
2022/10/24 10:18:25;;;;;;;8.35;2.92;;;;;;;14.84;99.35;95396.50;4821148;29;20478;-86
2022/10/24 10:20:59;;;;;;;6.30;3.90;;;;;;;14.98;98.46;95399.13;4840240;29;20229;-86
2022/10/24 10:23:31;;;;;;;9.83;4.57;;;;;;;15.06;98.01;95402.66;4834415;29;20219;-86
2022/10/24 10:26:23;;;;;;;8.60;3.07;;;;;;;14.99;98.38;95403.38;4832340;29;20323;-86
2022/10/24 10:29:02;;;;;;;7.33;3.03;;;;;;;14.94;98.63;95397.88;4832554;29;20225;-87
2022/10/24 10:31:27;;;;;;;7.43;2.70;;;;;;;14.92;98.06;95401.66;4834187;29;20189;-87
2022/10/24 10:34:13;;;;;;;7.57;3.15;;;;;;;14.86;99.25;95395.34;4834134;29;20201;-86
2022/10/24 10:36:46;;;;;;;6.00;2.60;;;;;;;14.90;98.80;95403.63;4833605;29;20704;-86
2022/10/24 10:39:25;;;;;;;10.27;2.63;;;;;;;14.80;98.72;95416.97;4835837;29;20217;-87
2022/10/24 10:42:03;;;;;;;3.97;2.27;;;;;;;14.66;100.00;95415.91;4836038;29;20658;-85
2022/10/24 10:44:42;;;;;;;9.07;2.73;;;;;;;14.70;99.72;95419.81;4836280;29;20201;-86
2022/10/24 10:47:34;;;;;;;3.95;2.42;;;;;;;14.71;99.90;95416.22;4822876;29;20617;-86
2022/10/24 10:50:01;;;;;;;6.27;2.53;;;;;;;14.78;99.47;95429.41;4835201;29;20233;-87
2022/10/24 10:52:32;;;;;;;4.82;2.72;;;;;;;14.63;99.73;95436.38;4823537;29;20725;-87
2022/10/24 10:55:17;;;;;;;7.47;2.70;;;;;;;14.74;99.63;95430.72;4820393;29;20211;-87
2022/10/24 10:58:17;;;;;;;4.68;2.55;;;;;;;14.74;98.89;95431.53;4823680;29;20204;-87
2022/10/24 11:00:47;;;;;;;5.97;2.37;;;;;;;14.68;99.10;95437.47;4867518;23;20238;-87
2022/10/24 11:03:45;;;;;;;6.93;2.27;;;;;;;15.06;97.56;95439.28;4842518;29;20333;-87
2022/10/24 11:06:31;;;;;;;5.50;2.07;;;;;;;14.98;97.34;95435.75;4844488;29;20197;-85
2022/10/24 11:09:36;;;;;;;;;;;;;;;;;;;;;
2022/10/24 11:12:39;;;;;;;5.93;2.60;;;;;;;15.22;95.90;95431.28;4841464;29;20285;-85
2022/10/24 11:15:43;;;;;;;9.90;2.10;;;;;;;15.05;96.79;95435.03;4858953;29;20204;-85
2022/10/24 11:18:28;;;;;;;5.35;2.33;;;;;;;15.08;96.10;95439.91;4860242;29;20329;-86
2022/10/24 11:20:59;;;;;;;6.30;2.50;;;;;;;15.28;94.92;95436.63;4847494;29;20308;-86
2022/10/24 11:23:56;;;;;;;7.90;3.33;;;;;;;15.63;93.02;95436.09;4858908;29;20848;-85
2022/10/24 11:26:47;;;;;;;6.35;2.30;;;;;;;15.37;94.13;95434.72;4853108;29;20971;-86
2022/10/24 11:29:19;;;;;;;6.53;2.65;;;;;;;15.36;94.52;95437.50;4859928;29;20279;-87
2022/10/24 11:32:06;;;;;;;5.47;2.50;;;;;;;15.45;94.10;95429.38;4833012;29;20696;-86
2022/10/24 11:34:39;;;;;;;4.93;2.67;;;;;;;15.22;94.89;95426.88;4846694;29;20235;-84
2022/10/24 11:37:18;;;;;;;6.47;2.27;;;;;;;15.44;93.95;95432.19;4847403;29;20224;-85
2022/10/24 11:40:10;;;;;;;4.47;2.30;;;;;;;15.33;94.11;95430.84;4845251;29;20720;-86
2022/10/24 11:42:43;;;;;;;6.13;2.20;;;;;;;15.33;93.91;95430.84;4825985;29;20238;-86
2022/10/24 11:45:40;;;;;;;5.72;2.63;;;;;;;15.54;92.76;95427.50;4793148;29;20255;-87
2022/10/24 11:48:13;;;;;;;7.90;2.53;;;;;;;15.57;92.96;95435.81;4800588;29;20201;-86
2022/10/24 11:51:00;;;;;;;6.70;2.60;;;;;;;15.44;92.97;95429.56;4805209;29;20714;-83
2022/10/24 11:53:30;;;;;;;5.50;1.98;;;;;;;15.57;92.69;95416.69;4794213;29;20277;-84
2022/10/24 11:55:58;;;;;;;3.03;2.28;;;;;;;15.76;91.74;95410.09;4806539;29;20195;-85
2022/10/24 11:58:25;;;;;;;5.97;2.30;;;;;;;15.67;91.75;95400.72;4803116;29;20545;-85
2022/10/24 12:00:50;;;;;;;5.63;2.28;;;;;;;15.40;92.70;95394.31;4810532;29;20589;-85
2022/10/24 12:03:15;;;;;;;7.53;2.65;;;;;;;15.58;92.14;95398.16;4809379;29;20207;-84
2022/10/24 12:05:43;;;;;;;6.72;2.53;;;;;;;15.77;91.47;95394.19;4826509;29;20194;-84
2022/10/24 12:08:20;;;;;;;9.60;2.65;;;;;;;15.64;92.79;95388.81;4794639;29;20199;-86
2022/10/24 12:11:04;;;;;;;5.65;2.08;;;;;;;15.56;93.31;95376.59;4797251;29;20222;-85
2022/10/24 12:13:42;;;;;;;7.07;2.50;;;;;;;15.90;91.50;95366.53;4777139;29;20380;-84
2022/10/24 12:16:40;;;;;;;7.20;2.40;;;;;;;15.86;91.05;95360.88;4808334;29;20583;-85
2022/10/24 12:19:40;;;;;;;7.70;2.95;;;;;;;16.02;90.35;95365.88;4799086;29;20222;-86
2022/10/24 12:22:20;;;;;;;12.65;3.72;;;;;;;16.23;89.31;95357.22;4789780;29;20286;-87
2022/10/24 12:24:45;;;;;;;8.02;2.60;;;;;;;16.14;88.89;95359.16;4780168;29;20195;-87
2022/10/24 12:27:59;;;;;;;5.72;2.42;;;;;;;16.17;89.29;95367.63;4794475;29;20211;-86
2022/10/24 12:30:45;;;;;;;7.05;2.67;;;;;;;16.31;88.95;95372.81;4816642;29;20225;-88
2022/10/24 12:33:24;;;;;;;5.95;2.38;;;;;;;16.61;87.54;95377.94;4807574;29;20201;-87
2022/10/24 12:35:56;;;;;;;8.30;2.92;;;;;;;16.55;87.38;95376.06;4826436;29;20276;-85
2022/10/24 12:38:27;;;;;;;7.70;3.22;;;;;;;16.75;86.56;95373.63;4826692;29;20202;-85
2022/10/24 12:41:08;;;;;;;8.93;2.53;;;;;;;16.93;85.51;95381.84;4840516;29;20256;-87
2022/10/24 12:43:36;;;;;;;9.20;3.15;;;;;;;16.98;85.49;95377.66;4840524;29;20208;-87
2022/10/24 12:46:24;;;;;;;8.52;2.90;;;;;;;17.04;85.09;95381.31;4842515;29;20197;-87
2022/10/24 12:48:55;;;;;;;8.68;2.90;;;;;;;16.92;86.24;95382.84;4810467;29;20843;-87
2022/10/24 12:51:35;;;;;;;7.88;2.67;;;;;;;16.96;86.48;95378.84;4824846;29;20225;-86